Time,TemperatureF,DewpointF,PressureIn,WindDirection,WindDirectionDegrees,WindSpeedMPH,WindSpeedGustMPH,Humidity,HourlyPrecipIn,Conditions,Clouds,dailyrainin,SoftwareType,DateUTC
2013-04-24 00:13:00,40.8,40.3,30.46,NE,45,3.8,-999.0,98,-99.99,,,0.00,Acu-Link.com,2013-04-24 04:13:00,
2013-04-24 00:28:00,41.2,40.7,30.46,NNE,22,2.7,-999.0,98,-99.99,,,0.00,Acu-Link.com,2013-04-24 04:28:00,
2013-04-24 00:43:00,41.2,40.7,30.45,East,90,2.7,-999.0,98,-99.99,,,0.00,Acu-Link.com,2013-04-24 04:43:00,
2013-04-24 00:58:00,41.4,40.8,30.45,NE,45,6.3,-999.0,98,-99.99,,,0.00,Acu-Link.com,2013-04-24 04:58:00,
2013-04-24 01:14:00,41.4,40.8,30.45,ESE,112,5.1,-999.0,98,-99.99,,,0.00,Acu-Link.com,2013-04-24 05:14:00,
2013-04-24 01:29:00,41.4,40.8,30.44,ENE,67,4.7,-999.0,98,-99.99,,,0.00,Acu-Link.com,2013-04-24 05:29:00,
2013-04-24 01:44:00,41.4,40.8,30.44,East,90,4.7,-999.0,98,-99.99,,,0.00,Acu-Link.com,2013-04-24 05:44:00,
2013-04-24 01:59:00,41.4,40.8,30.43,WNW,292,2.2,-999.0,98,-99.99,,,0.00,Acu-Link.com,2013-04-24 05:59:00,
2013-04-24 02:14:00,41.4,40.8,30.42,ESE,112,3.8,-999.0,98,-99.99,,,0.00,Acu-Link.com,2013-04-24 06:14:00,
2013-04-24 02:30:00,41.4,40.8,30.41,NE,45,4.3,-999.0,98,-99.99,,,0.00,Acu-Link.com,2013-04-24 06:30:00,
2013-04-24 02:45:00,41.5,41.0,30.40,SE,135,5.1,-999.0,98,-99.99,,,0.00,Acu-Link.com,2013-04-24 06:45:00,
2013-04-24 03:00:00,41.5,41.0,30.40,WNW,292,2.2,-999.0,98,-99.99,,,0.00,Acu-Link.com,2013-04-24 07:00:00,
2013-04-24 19:05:00,59.4,58.8,30.19,WNW,292,2.7,-999.0,98,-99.99,,,0.00,Acu-Link.com,2013-04-24 23:05:00,
2013-04-24 19:20:00,58.3,57.7,30.20,ESE,112,5.8,-999.0,98,-99.99,,,0.00,Acu-Link.com,2013-04-24 23:20:00,
2013-04-24 19:35:00,57.4,56.8,30.20,South,180,1.1,-999.0,98,-99.99,,,0.00,Acu-Link.com,2013-04-24 23:35:00,
2013-04-24 19:51:00,56.5,55.9,30.20,ESE,112,1.6,-999.0,98,-99.99,,,0.00,Acu-Link.com,2013-04-24 23:51:00,
2013-04-24 20:06:00,55.2,54.7,30.20,South,180,3.8,-999.0,98,-99.99,,,0.00,Acu-Link.com,2013-04-25 00:06:00,
2013-04-24 20:21:00,53.4,52.9,30.21,ESE,112,4.3,-999.0,98,-99.99,,,0.00,Acu-Link.com,2013-04-25 00:21:00,
2013-04-24 20:36:00,52.0,51.4,30.23,South,180,7.8,-999.0,98,-99.99,,,0.00,Acu-Link.com,2013-04-25 00:36:00,
2013-04-24 20:52:00,51.1,50.5,30.25,SSW,202,5.1,-999.0,98,-99.99,,,0.00,Acu-Link.com,2013-04-25 00:52:00,
2013-04-24 21:07:00,50.7,50.2,30.25,ENE,67,4.3,-999.0,98,-99.99,,,0.00,Acu-Link.com,2013-04-25 01:07:00,
2013-04-24 21:22:00,50.4,49.8,30.24,SW,225,5.1,-999.0,98,-99.99,,,0.00,Acu-Link.com,2013-04-25 01:22:00,
2013-04-24 21:37:00,50.4,49.8,30.24,NW,315,4.3,-999.0,98,-99.99,,,0.00,Acu-Link.com,2013-04-25 01:37:00,
2013-04-24 21:52:00,50.2,49.6,30.23,SW,225,5.8,-999.0,98,-99.99,,,0.00,Acu-Link.com,2013-04-25 01:52:00,
2013-04-24 22:07:00,50.2,49.6,30.24,SSW,202,3.1,-999.0,98,-99.99,,,0.00,Acu-Link.com,2013-04-25 02:07:00,
2013-04-24 22:23:00,50.0,49.5,30.23,ESE,112,3.1,-999.0,98,-99.99,,,0.00,Acu-Link.com,2013-04-25 02:23:00,
2013-04-24 22:38:00,50.0,49.5,30.23,West,270,6.3,-999.0,98,-99.99,,,0.00,Acu-Link.com,2013-04-25 02:38:00,
2013-04-24 22:53:00,50.0,49.5,30.23,South,180,3.8,-999.0,98,-99.99,,,0.00,Acu-Link.com,2013-04-25 02:53:00,
2013-04-24 23:08:00,49.8,49.3,30.23,South,180,2.2,-999.0,98,-99.99,,,0.00,Acu-Link.com,2013-04-25 03:08:00,
2013-04-24 23:24:00,49.8,49.3,30.23,South,180,1.6,-999.0,98,-99.99,,,0.00,Acu-Link.com,2013-04-25 03:24:00,
2013-04-24 23:39:00,50.0,49.5,30.23,ENE,67,1.6,-999.0,98,-99.99,,,0.00,Acu-Link.com,2013-04-25 03:39:00,
2013-04-24 23:54:00,50.2,49.6,30.22,East,90,1.1,-999.0,98,-99.99,,,0.00,Acu-Link.com,2013-04-25 03:54:00,